TimeCST,TemperatureF,Dew PointF,Humidity,Sea Level PressureIn,VisibilityMPH,Wind Direction,Wind SpeedMPH,Gust SpeedMPH,PrecipitationIn,Events,Conditions,WindDirDegrees,DateUTC
12:53 AM,32.0,21.0,64,30.20,10.0,SSE,12.7,-,N/A,,Clear,160,2012-11-17 06:53:00
1:53 AM,32.0,21.9,66,30.18,10.0,SSE,11.5,-,N/A,,Clear,160,2012-11-17 07:53:00
2:53 AM,33.1,24.1,70,30.17,10.0,SSE,8.1,-,N/A,,Clear,160,2012-11-17 08:53:00
3:53 AM,32.0,25.0,75,30.16,10.0,SSE,9.2,-,N/A,,Clear,150,2012-11-17 09:53:00
4:53 AM,30.9,26.1,82,30.16,10.0,SSE,8.1,-,N/A,,Clear,150,2012-11-17 10:53:00
5:53 AM,32.0,27.0,82,30.16,10.0,SSE,10.4,-,N/A,,Clear,150,2012-11-17 11:53:00
6:53 AM,32.0,27.0,82,30.16,9.0,SSE,8.1,-,N/A,,Clear,160,2012-11-17 12:53:00
7:53 AM,34.0,28.0,79,30.16,10.0,South,10.4,-,N/A,,Clear,170,2012-11-17 13:53:00
8:53 AM,36.0,30.0,79,30.16,8.0,SSE,11.5,-,N/A,,Clear,160,2012-11-17 14:53:00
9:53 AM,39.0,30.9,73,30.17,10.0,South,9.2,-,N/A,,Clear,170,2012-11-17 15:53:00
10:53 AM,45.0,32.0,60,30.16,10.0,South,13.8,-,N/A,,Partly Cloudy,180,2012-11-17 16:53:00
11:53 AM,44.1,33.1,65,30.16,10.0,South,10.4,-,N/A,,Clear,180,2012-11-17 17:53:00
12:53 PM,46.0,33.1,61,30.15,10.0,South,8.1,-,N/A,,Clear,180,2012-11-17 18:53:00
1:53 PM,46.9,34.0,61,30.14,10.0,South,10.4,-,N/A,,Mostly Cloudy,170,2012-11-17 19:53:00
2:53 PM,46.9,34.0,61,30.12,10.0,SSE,10.4,-,N/A,,Mostly Cloudy,150,2012-11-17 20:53:00
3:53 PM,46.9,34.0,61,30.13,10.0,SSE,5.8,-,N/A,,Partly Cloudy,150,2012-11-17 21:53:00
4:53 PM,45.0,33.1,63,30.13,10.0,SE,8.1,-,N/A,,Partly Cloudy,140,2012-11-17 22:53:00
5:53 PM,45.0,34.0,65,30.14,10.0,ESE,3.5,-,N/A,,Clear,120,2012-11-17 23:53:00
6:53 PM,45.0,33.1,63,30.14,10.0,SE,6.9,-,N/A,,Clear,130,2012-11-18 00:53:00
7:53 PM,43.0,33.1,68,30.13,10.0,SE,8.1,-,N/A,,Clear,130,2012-11-18 01:53:00
8:53 PM,43.0,33.1,68,30.13,10.0,SE,8.1,-,N/A,,Clear,140,2012-11-18 02:53:00
9:53 PM,43.0,33.1,68,30.11,10.0,SE,8.1,-,N/A,,Clear,130,2012-11-18 03:53:00
10:53 PM,44.1,34.0,68,30.09,10.0,SSE,12.7,-,N/A,,Clear,150,2012-11-18 04:53:00
11:53 PM,41.0,33.1,73,30.10,10.0,SE,8.1,-,N/A,,Clear,140,2012-11-18 05:53:00